sensor_id;sensor_type;location;lat;lon;timestamp;P1;durP1;ratioP1;P2;durP2;ratioP2
45206;SDS011;30950;53.086;21.576;2023-04-24T00:01:41;13.73;;;7.25;;
45206;SDS011;30950;53.086;21.576;2023-04-24T00:04:10;11.27;;;7.28;;
45206;SDS011;30950;53.086;21.576;2023-04-24T00:06:38;9.43;;;7.32;;
45206;SDS011;30950;53.086;21.576;2023-04-24T00:09:05;11.23;;;6.95;;
45206;SDS011;30950;53.086;21.576;2023-04-24T00:11:32;11.32;;;7.28;;
45206;SDS011;30950;53.086;21.576;2023-04-24T00:14:00;10.05;;;7.65;;
45206;SDS011;30950;53.086;21.576;2023-04-24T00:16:27;11.00;;;7.15;;
45206;SDS011;30950;53.086;21.576;2023-04-24T00:18:54;9.00;;;6.40;;
45206;SDS011;30950;53.086;21.576;2023-04-24T00:21:22;10.27;;;6.88;;
45206;SDS011;30950;53.086;21.576;2023-04-24T00:23:52;9.10;;;6.97;;
45206;SDS011;30950;53.086;21.576;2023-04-24T00:26:20;10.27;;;7.00;;
45206;SDS011;30950;53.086;21.576;2023-04-24T00:28:47;8.70;;;6.43;;
45206;SDS011;30950;53.086;21.576;2023-04-24T00:31:14;9.18;;;7.05;;
45206;SDS011;30950;53.086;21.576;2023-04-24T00:33:41;10.82;;;7.70;;
45206;SDS011;30950;53.086;21.576;2023-04-24T00:36:09;11.02;;;7.40;;
45206;SDS011;30950;53.086;21.576;2023-04-24T00:38:36;10.80;;;7.00;;
45206;SDS011;30950;53.086;21.576;2023-04-24T00:41:04;10.40;;;6.93;;
45206;SDS011;30950;53.086;21.576;2023-04-24T00:43:31;10.70;;;7.82;;
45206;SDS011;30950;53.086;21.576;2023-04-24T00:45:58;11.50;;;7.18;;
45206;SDS011;30950;53.086;21.576;2023-04-24T00:48:28;9.50;;;7.15;;
45206;SDS011;30950;53.086;21.576;2023-04-24T00:50:56;11.10;;;6.93;;
45206;SDS011;30950;53.086;21.576;2023-04-24T00:53:25;11.77;;;7.35;;
45206;SDS011;30950;53.086;21.576;2023-04-24T00:55:52;16.33;;;7.45;;
45206;SDS011;30950;53.086;21.576;2023-04-24T00:58:20;11.73;;;8.15;;
45206;SDS011;30950;53.086;21.576;2023-04-24T01:00:48;10.40;;;7.63;;
45206;SDS011;30950;53.086;21.576;2023-04-24T01:03:20;15.20;;;7.35;;
45206;SDS011;30950;53.086;21.576;2023-04-24T01:05:49;11.65;;;6.80;;
45206;SDS011;30950;53.086;21.576;2023-04-24T01:08:17;9.50;;;7.05;;
45206;SDS011;30950;53.086;21.576;2023-04-24T01:10:46;13.05;;;6.53;;
45206;SDS011;30950;53.086;21.576;2023-04-24T01:13:15;13.38;;;7.72;;
45206;SDS011;30950;53.086;21.576;2023-04-24T01:15:44;9.00;;;6.88;;
45206;SDS011;30950;53.086;21.576;2023-04-24T01:18:12;14.13;;;7.55;;
45206;SDS011;30950;53.086;21.576;2023-04-24T01:20:40;11.93;;;6.68;;
45206;SDS011;30950;53.086;21.576;2023-04-24T01:23:09;10.77;;;7.28;;
45206;SDS011;30950;53.086;21.576;2023-04-24T01:25:38;11.55;;;7.40;;
45206;SDS011;30950;53.086;21.576;2023-04-24T01:28:05;10.45;;;7.85;;
45206;SDS011;30950;53.086;21.576;2023-04-24T01:30:33;10.70;;;7.10;;
45206;SDS011;30950;53.086;21.576;2023-04-24T01:33:00;9.55;;;6.65;;
45206;SDS011;30950;53.086;21.576;2023-04-24T01:35:28;10.73;;;6.90;;
45206;SDS011;30950;53.086;21.576;2023-04-24T01:37:55;10.68;;;7.68;;
45206;SDS011;30950;53.086;21.576;2023-04-24T01:40:24;10.63;;;7.05;;
45206;SDS011;30950;53.086;21.576;2023-04-24T01:42:51;9.55;;;7.32;;
45206;SDS011;30950;53.086;21.576;2023-04-24T01:45:19;16.02;;;7.60;;
45206;SDS011;30950;53.086;21.576;2023-04-24T01:47:46;10.50;;;7.43;;
45206;SDS011;30950;53.086;21.576;2023-04-24T01:50:16;14.50;;;7.00;;
45206;SDS011;30950;53.086;21.576;2023-04-24T01:52:44;11.52;;;7.00;;
45206;SDS011;30950;53.086;21.576;2023-04-24T01:55:12;8.82;;;6.55;;
45206;SDS011;30950;53.086;21.576;2023-04-24T01:57:39;9.85;;;7.07;;
45206;SDS011;30950;53.086;21.576;2023-04-24T02:00:07;10.75;;;7.47;;
45206;SDS011;30950;53.086;21.576;2023-04-24T02:02:40;9.98;;;6.60;;
45206;SDS011;30950;53.086;21.576;2023-04-24T02:05:12;9.07;;;7.20;;
45206;SDS011;30950;53.086;21.576;2023-04-24T02:07:39;11.45;;;7.80;;
45206;SDS011;30950;53.086;21.576;2023-04-24T02:10:08;11.25;;;7.45;;
45206;SDS011;30950;53.086;21.576;2023-04-24T02:12:40;10.82;;;7.38;;
45206;SDS011;30950;53.086;21.576;2023-04-24T02:15:08;13.02;;;6.93;;
45206;SDS011;30950;53.086;21.576;2023-04-24T02:17:36;9.43;;;7.57;;
45206;SDS011;30950;53.086;21.576;2023-04-24T02:20:05;10.48;;;7.57;;
45206;SDS011;30950;53.086;21.576;2023-04-24T02:22:33;11.63;;;7.43;;
45206;SDS011;30950;53.086;21.576;2023-04-24T02:25:01;10.50;;;7.45;;
45206;SDS011;30950;53.086;21.576;2023-04-24T02:27:28;10.88;;;7.70;;
45206;SDS011;30950;53.086;21.576;2023-04-24T02:29:56;11.98;;;7.78;;
45206;SDS011;30950;53.086;21.576;2023-04-24T02:32:24;12.68;;;7.63;;
45206;SDS011;30950;53.086;21.576;2023-04-24T02:34:51;11.73;;;7.68;;
45206;SDS011;30950;53.086;21.576;2023-04-24T02:37:18;9.93;;;7.32;;
45206;SDS011;30950;53.086;21.576;2023-04-24T02:39:46;13.60;;;8.75;;
45206;SDS011;30950;53.086;21.576;2023-04-24T02:42:13;10.88;;;7.85;;
45206;SDS011;30950;53.086;21.576;2023-04-24T02:44:40;11.05;;;7.60;;
45206;SDS011;30950;53.086;21.576;2023-04-24T02:47:08;15.60;;;8.50;;
45206;SDS011;30950;53.086;21.576;2023-04-24T02:49:35;12.75;;;7.70;;
45206;SDS011;30950;53.086;21.576;2023-04-24T02:52:02;9.57;;;7.57;;
45206;SDS011;30950;53.086;21.576;2023-04-24T02:54:30;12.18;;;8.38;;
45206;SDS011;30950;53.086;21.576;2023-04-24T02:56:57;10.82;;;7.22;;
45206;SDS011;30950;53.086;21.576;2023-04-24T02:59:25;11.20;;;7.47;;
45206;SDS011;30950;53.086;21.576;2023-04-24T03:01:54;9.82;;;7.40;;
45206;SDS011;30950;53.086;21.576;2023-04-24T03:04:21;14.00;;;7.93;;
45206;SDS011;30950;53.086;21.576;2023-04-24T03:06:49;14.38;;;7.95;;
45206;SDS011;30950;53.086;21.576;2023-04-24T03:09:23;14.30;;;7.85;;
45206;SDS011;30950;53.086;21.576;2023-04-24T03:11:50;13.30;;;8.18;;
45206;SDS011;30950;53.086;21.576;2023-04-24T03:14:17;15.10;;;8.35;;
45206;SDS011;30950;53.086;21.576;2023-04-24T03:16:44;13.63;;;8.35;;
45206;SDS011;30950;53.086;21.576;2023-04-24T03:19:12;15.60;;;8.98;;
45206;SDS011;30950;53.086;21.576;2023-04-24T03:21:53;11.77;;;7.53;;
45206;SDS011;30950;53.086;21.576;2023-04-24T03:24:21;12.40;;;8.20;;
45206;SDS011;30950;53.086;21.576;2023-04-24T03:26:49;10.68;;;7.90;;
45206;SDS011;30950;53.086;21.576;2023-04-24T03:29:33;14.95;;;7.72;;
45206;SDS011;30950;53.086;21.576;2023-04-24T03:32:00;15.40;;;8.57;;
45206;SDS011;30950;53.086;21.576;2023-04-24T03:34:28;17.30;;;8.52;;
45206;SDS011;30950;53.086;21.576;2023-04-24T03:36:56;12.30;;;8.55;;
45206;SDS011;30950;53.086;21.576;2023-04-24T03:39:24;14.55;;;8.57;;
45206;SDS011;30950;53.086;21.576;2023-04-24T03:41:54;13.93;;;8.15;;
45206;SDS011;30950;53.086;21.576;2023-04-24T03:44:31;10.68;;;7.85;;
45206;SDS011;30950;53.086;21.576;2023-04-24T03:46:59;12.82;;;8.07;;
45206;SDS011;30950;53.086;21.576;2023-04-24T03:49:27;20.15;;;8.48;;
45206;SDS011;30950;53.086;21.576;2023-04-24T03:51:54;16.55;;;8.32;;
45206;SDS011;30950;53.086;21.576;2023-04-24T03:54:24;10.73;;;7.88;;
45206;SDS011;30950;53.086;21.576;2023-04-24T03:56:53;12.50;;;8.20;;
45206;SDS011;30950;53.086;21.576;2023-04-24T03:59:20;14.23;;;8.10;;
45206;SDS011;30950;53.086;21.576;2023-04-24T04:01:58;11.52;;;7.57;;
45206;SDS011;30950;53.086;21.576;2023-04-24T04:04:27;13.07;;;7.88;;
45206;SDS011;30950;53.086;21.576;2023-04-24T04:06:54;15.95;;;7.93;;
45206;SDS011;30950;53.086;21.576;2023-04-24T04:09:23;12.05;;;7.50;;
45206;SDS011;30950;53.086;21.576;2023-04-24T04:11:50;12.98;;;8.20;;
45206;SDS011;30950;53.086;21.576;2023-04-24T04:14:18;16.90;;;9.30;;
45206;SDS011;30950;53.086;21.576;2023-04-24T04:16:47;15.25;;;8.50;;
45206;SDS011;30950;53.086;21.576;2023-04-24T04:19:14;12.07;;;7.57;;
45206;SDS011;30950;53.086;21.576;2023-04-24T04:21:42;12.05;;;8.13;;
45206;SDS011;30950;53.086;21.576;2023-04-24T04:24:22;10.93;;;7.75;;
45206;SDS011;30950;53.086;21.576;2023-04-24T04:26:51;14.85;;;8.00;;
45206;SDS011;30950;53.086;21.576;2023-04-24T04:29:24;12.90;;;7.60;;
45206;SDS011;30950;53.086;21.576;2023-04-24T04:31:52;11.88;;;8.30;;
45206;SDS011;30950;53.086;21.576;2023-04-24T04:34:21;10.25;;;7.07;;
45206;SDS011;30950;53.086;21.576;2023-04-24T04:36:50;13.43;;;8.43;;
45206;SDS011;30950;53.086;21.576;2023-04-24T04:39:40;13.85;;;8.32;;
45206;SDS011;30950;53.086;21.576;2023-04-24T04:42:20;15.82;;;8.50;;
45206;SDS011;30950;53.086;21.576;2023-04-24T04:44:50;10.68;;;8.27;;
45206;SDS011;30950;53.086;21.576;2023-04-24T04:47:21;9.80;;;7.88;;
45206;SDS011;30950;53.086;21.576;2023-04-24T04:49:52;10.85;;;7.93;;
45206;SDS011;30950;53.086;21.576;2023-04-24T04:52:23;15.45;;;8.65;;
45206;SDS011;30950;53.086;21.576;2023-04-24T04:55:13;13.10;;;7.93;;
45206;SDS011;30950;53.086;21.576;2023-04-24T04:58:03;13.60;;;8.48;;
45206;SDS011;30950;53.086;21.576;2023-04-24T05:00:31;13.52;;;8.30;;
45206;SDS011;30950;53.086;21.576;2023-04-24T05:03:07;15.52;;;8.63;;
45206;SDS011;30950;53.086;21.576;2023-04-24T05:05:51;12.02;;;8.00;;
45206;SDS011;30950;53.086;21.576;2023-04-24T05:08:18;13.60;;;9.35;;
45206;SDS011;30950;53.086;21.576;2023-04-24T05:10:54;12.10;;;9.00;;
45206;SDS011;30950;53.086;21.576;2023-04-24T05:13:22;15.55;;;9.40;;
45206;SDS011;30950;53.086;21.576;2023-04-24T05:16:14;15.32;;;8.20;;
45206;SDS011;30950;53.086;21.576;2023-04-24T05:18:41;16.00;;;8.27;;
45206;SDS011;30950;53.086;21.576;2023-04-24T05:21:12;14.02;;;7.78;;
45206;SDS011;30950;53.086;21.576;2023-04-24T05:23:42;14.93;;;8.23;;
45206;SDS011;30950;53.086;21.576;2023-04-24T05:26:13;12.77;;;8.95;;
45206;SDS011;30950;53.086;21.576;2023-04-24T05:28:42;12.25;;;7.97;;
45206;SDS011;30950;53.086;21.576;2023-04-24T05:31:11;10.77;;;7.88;;
45206;SDS011;30950;53.086;21.576;2023-04-24T05:33:39;13.80;;;8.57;;
45206;SDS011;30950;53.086;21.576;2023-04-24T05:36:07;12.40;;;8.32;;
45206;SDS011;30950;53.086;21.576;2023-04-24T05:38:35;16.25;;;8.27;;
45206;SDS011;30950;53.086;21.576;2023-04-24T05:41:02;13.93;;;8.70;;
45206;SDS011;30950;53.086;21.576;2023-04-24T05:43:29;14.77;;;7.65;;
45206;SDS011;30950;53.086;21.576;2023-04-24T05:45:57;16.48;;;8.63;;
45206;SDS011;30950;53.086;21.576;2023-04-24T05:48:24;12.63;;;8.20;;
45206;SDS011;30950;53.086;21.576;2023-04-24T05:50:52;10.23;;;8.02;;
45206;SDS011;30950;53.086;21.576;2023-04-24T05:53:19;18.23;;;8.60;;
45206;SDS011;30950;53.086;21.576;2023-04-24T05:55:47;16.98;;;9.45;;
45206;SDS011;30950;53.086;21.576;2023-04-24T05:58:14;14.02;;;9.70;;
45206;SDS011;30950;53.086;21.576;2023-04-24T06:00:42;14.52;;;8.63;;
45206;SDS011;30950;53.086;21.576;2023-04-24T06:03:11;12.30;;;7.95;;
45206;SDS011;30950;53.086;21.576;2023-04-24T06:05:40;13.00;;;8.18;;
45206;SDS011;30950;53.086;21.576;2023-04-24T06:08:07;14.25;;;9.00;;
45206;SDS011;30950;53.086;21.576;2023-04-24T06:10:38;13.23;;;8.38;;
45206;SDS011;30950;53.086;21.576;2023-04-24T06:13:07;11.80;;;8.52;;
45206;SDS011;30950;53.086;21.576;2023-04-24T06:15:38;12.90;;;9.02;;
45206;SDS011;30950;53.086;21.576;2023-04-24T06:18:18;13.18;;;9.13;;
45206;SDS011;30950;53.086;21.576;2023-04-24T06:20:47;15.45;;;8.88;;
45206;SDS011;30950;53.086;21.576;2023-04-24T06:23:15;12.27;;;8.80;;
45206;SDS011;30950;53.086;21.576;2023-04-24T06:25:42;14.20;;;9.10;;
45206;SDS011;30950;53.086;21.576;2023-04-24T06:28:12;12.85;;;9.13;;
45206;SDS011;30950;53.086;21.576;2023-04-24T06:30:39;10.75;;;8.68;;
45206;SDS011;30950;53.086;21.576;2023-04-24T06:33:07;13.00;;;9.77;;
45206;SDS011;30950;53.086;21.576;2023-04-24T06:35:47;12.80;;;9.30;;
45206;SDS011;30950;53.086;21.576;2023-04-24T06:38:14;12.95;;;9.32;;
45206;SDS011;30950;53.086;21.576;2023-04-24T06:40:43;16.80;;;10.23;;
45206;SDS011;30950;53.086;21.576;2023-04-24T06:43:10;14.23;;;9.93;;
45206;SDS011;30950;53.086;21.576;2023-04-24T06:45:38;12.25;;;8.73;;
45206;SDS011;30950;53.086;21.576;2023-04-24T06:48:06;12.45;;;9.00;;
45206;SDS011;30950;53.086;21.576;2023-04-24T06:50:34;14.25;;;9.80;;
45206;SDS011;30950;53.086;21.576;2023-04-24T06:53:01;12.50;;;8.85;;
45206;SDS011;30950;53.086;21.576;2023-04-24T06:55:29;13.32;;;9.80;;
45206;SDS011;30950;53.086;21.576;2023-04-24T06:57:56;16.10;;;9.80;;
45206;SDS011;30950;53.086;21.576;2023-04-24T07:00:23;11.13;;;8.85;;
45206;SDS011;30950;53.086;21.576;2023-04-24T07:02:51;12.32;;;8.90;;
45206;SDS011;30950;53.086;21.576;2023-04-24T07:05:18;11.63;;;9.52;;
45206;SDS011;30950;53.086;21.576;2023-04-24T07:07:50;12.50;;;9.55;;
45206;SDS011;30950;53.086;21.576;2023-04-24T07:10:18;12.80;;;9.15;;
45206;SDS011;30950;53.086;21.576;2023-04-24T07:12:45;14.55;;;9.57;;
45206;SDS011;30950;53.086;21.576;2023-04-24T07:15:13;14.50;;;8.88;;
45206;SDS011;30950;53.086;21.576;2023-04-24T07:17:41;13.15;;;9.15;;
45206;SDS011;30950;53.086;21.576;2023-04-24T07:20:11;15.88;;;9.27;;
45206;SDS011;30950;53.086;21.576;2023-04-24T07:22:40;12.88;;;8.85;;
45206;SDS011;30950;53.086;21.576;2023-04-24T07:25:08;10.35;;;8.77;;
45206;SDS011;30950;53.086;21.576;2023-04-24T07:27:35;12.40;;;9.02;;
45206;SDS011;30950;53.086;21.576;2023-04-24T07:30:03;13.43;;;9.38;;
45206;SDS011;30950;53.086;21.576;2023-04-24T07:32:31;13.57;;;9.48;;
45206;SDS011;30950;53.086;21.576;2023-04-24T07:34:58;15.18;;;8.65;;
45206;SDS011;30950;53.086;21.576;2023-04-24T07:37:26;12.15;;;8.82;;
45206;SDS011;30950;53.086;21.576;2023-04-24T07:39:55;12.07;;;8.82;;
45206;SDS011;30950;53.086;21.576;2023-04-24T07:42:22;12.85;;;8.98;;
45206;SDS011;30950;53.086;21.576;2023-04-24T07:44:50;11.98;;;8.52;;
45206;SDS011;30950;53.086;21.576;2023-04-24T07:47:20;15.65;;;8.50;;
45206;SDS011;30950;53.086;21.576;2023-04-24T07:49:47;20.88;;;9.40;;
45206;SDS011;30950;53.086;21.576;2023-04-24T07:52:15;12.15;;;8.18;;
45206;SDS011;30950;53.086;21.576;2023-04-24T07:54:42;16.50;;;9.35;;
45206;SDS011;30950;53.086;21.576;2023-04-24T07:57:09;13.45;;;8.10;;
45206;SDS011;30950;53.086;21.576;2023-04-24T07:59:37;14.10;;;8.63;;
45206;SDS011;30950;53.086;21.576;2023-04-24T08:02:04;11.52;;;7.82;;
45206;SDS011;30950;53.086;21.576;2023-04-24T08:04:33;11.88;;;8.35;;
45206;SDS011;30950;53.086;21.576;2023-04-24T08:07:00;21.35;;;8.88;;
45206;SDS011;30950;53.086;21.576;2023-04-24T08:09:28;9.45;;;8.02;;
45206;SDS011;30950;53.086;21.576;2023-04-24T08:11:55;10.75;;;7.93;;
45206;SDS011;30950;53.086;21.576;2023-04-24T08:14:23;9.45;;;7.03;;
45206;SDS011;30950;53.086;21.576;2023-04-24T08:16:52;10.02;;;7.80;;
45206;SDS011;30950;53.086;21.576;2023-04-24T08:19:22;9.80;;;7.20;;
45206;SDS011;30950;53.086;21.576;2023-04-24T08:21:51;10.35;;;7.85;;
45206;SDS011;30950;53.086;21.576;2023-04-24T08:24:19;15.82;;;9.00;;
45206;SDS011;30950;53.086;21.576;2023-04-24T08:26:46;10.07;;;7.20;;
45206;SDS011;30950;53.086;21.576;2023-04-24T08:29:17;9.13;;;6.82;;
45206;SDS011;30950;53.086;21.576;2023-04-24T08:31:44;9.93;;;7.20;;
45206;SDS011;30950;53.086;21.576;2023-04-24T08:34:11;8.10;;;7.28;;
45206;SDS011;30950;53.086;21.576;2023-04-24T08:36:39;9.48;;;6.50;;
45206;SDS011;30950;53.086;21.576;2023-04-24T08:39:13;11.73;;;7.55;;
45206;SDS011;30950;53.086;21.576;2023-04-24T08:41:42;10.10;;;6.82;;
45206;SDS011;30950;53.086;21.576;2023-04-24T08:44:10;9.45;;;6.97;;
45206;SDS011;30950;53.086;21.576;2023-04-24T08:46:39;8.13;;;6.75;;
45206;SDS011;30950;53.086;21.576;2023-04-24T08:49:07;8.82;;;6.90;;
45206;SDS011;30950;53.086;21.576;2023-04-24T08:51:36;10.55;;;7.05;;
45206;SDS011;30950;53.086;21.576;2023-04-24T08:54:04;9.40;;;7.07;;
45206;SDS011;30950;53.086;21.576;2023-04-24T08:56:31;12.50;;;7.63;;
45206;SDS011;30950;53.086;21.576;2023-04-24T08:59:01;11.15;;;7.13;;
45206;SDS011;30950;53.086;21.576;2023-04-24T09:01:28;9.23;;;7.05;;
45206;SDS011;30950;53.086;21.576;2023-04-24T09:04:00;11.55;;;6.93;;
45206;SDS011;30950;53.086;21.576;2023-04-24T09:06:30;9.80;;;6.93;;
45206;SDS011;30950;53.086;21.576;2023-04-24T09:09:01;9.18;;;6.43;;
45206;SDS011;30950;53.086;21.576;2023-04-24T09:11:30;11.43;;;6.88;;
45206;SDS011;30950;53.086;21.576;2023-04-24T09:13:59;8.32;;;6.20;;
45206;SDS011;30950;53.086;21.576;2023-04-24T09:16:27;10.23;;;6.57;;
45206;SDS011;30950;53.086;21.576;2023-04-24T09:18:55;11.85;;;7.18;;
45206;SDS011;30950;53.086;21.576;2023-04-24T09:21:22;12.10;;;7.15;;
45206;SDS011;30950;53.086;21.576;2023-04-24T09:24:00;8.32;;;6.47;;
45206;SDS011;30950;53.086;21.576;2023-04-24T09:26:34;8.07;;;6.43;;
45206;SDS011;30950;53.086;21.576;2023-04-24T09:29:02;8.57;;;7.05;;
45206;SDS011;30950;53.086;21.576;2023-04-24T09:31:31;12.80;;;7.10;;
45206;SDS011;30950;53.086;21.576;2023-04-24T09:33:59;13.32;;;6.90;;
45206;SDS011;30950;53.086;21.576;2023-04-24T09:36:30;12.18;;;7.13;;
45206;SDS011;30950;53.086;21.576;2023-04-24T09:39:06;8.03;;;6.80;;
45206;SDS011;30950;53.086;21.576;2023-04-24T09:41:35;8.43;;;6.15;;
45206;SDS011;30950;53.086;21.576;2023-04-24T09:44:16;10.63;;;6.50;;
45206;SDS011;30950;53.086;21.576;2023-04-24T09:46:44;11.77;;;6.68;;
45206;SDS011;30950;53.086;21.576;2023-04-24T09:49:16;8.35;;;6.25;;
45206;SDS011;30950;53.086;21.576;2023-04-24T09:51:52;12.43;;;6.22;;
45206;SDS011;30950;53.086;21.576;2023-04-24T09:54:28;8.90;;;7.00;;
45206;SDS011;30950;53.086;21.576;2023-04-24T09:56:56;9.68;;;6.25;;
45206;SDS011;30950;53.086;21.576;2023-04-24T09:59:23;11.18;;;7.20;;
45206;SDS011;30950;53.086;21.576;2023-04-24T10:01:51;9.23;;;6.15;;
45206;SDS011;30950;53.086;21.576;2023-04-24T10:04:19;11.88;;;6.63;;
45206;SDS011;30950;53.086;21.576;2023-04-24T10:06:47;11.38;;;5.68;;
45206;SDS011;30950;53.086;21.576;2023-04-24T10:09:16;10.77;;;6.13;;
45206;SDS011;30950;53.086;21.576;2023-04-24T10:11:45;9.82;;;6.55;;
45206;SDS011;30950;53.086;21.576;2023-04-24T10:14:14;9.30;;;5.75;;
45206;SDS011;30950;53.086;21.576;2023-04-24T10:16:48;9.82;;;6.88;;
45206;SDS011;30950;53.086;21.576;2023-04-24T10:19:16;10.73;;;6.28;;
45206;SDS011;30950;53.086;21.576;2023-04-24T10:21:47;9.32;;;5.43;;
45206;SDS011;30950;53.086;21.576;2023-04-24T10:24:15;8.40;;;5.22;;
45206;SDS011;30950;53.086;21.576;2023-04-24T10:26:45;7.80;;;5.57;;
45206;SDS011;30950;53.086;21.576;2023-04-24T10:29:15;7.70;;;5.10;;
45206;SDS011;30950;53.086;21.576;2023-04-24T10:31:45;6.20;;;5.03;;
45206;SDS011;30950;53.086;21.576;2023-04-24T10:34:14;11.00;;;6.07;;
45206;SDS011;30950;53.086;21.576;2023-04-24T10:36:45;7.85;;;4.93;;
45206;SDS011;30950;53.086;21.576;2023-04-24T10:39:23;7.78;;;5.18;;
45206;SDS011;30950;53.086;21.576;2023-04-24T10:41:54;8.60;;;5.30;;
45206;SDS011;30950;53.086;21.576;2023-04-24T10:44:25;7.95;;;5.40;;
45206;SDS011;30950;53.086;21.576;2023-04-24T10:47:02;8.63;;;6.50;;
45206;SDS011;30950;53.086;21.576;2023-04-24T10:49:31;8.05;;;4.95;;
45206;SDS011;30950;53.086;21.576;2023-04-24T10:52:02;7.05;;;4.88;;
45206;SDS011;30950;53.086;21.576;2023-04-24T10:54:36;9.48;;;5.55;;
45206;SDS011;30950;53.086;21.576;2023-04-24T10:59:45;7.78;;;5.35;;
45206;SDS011;30950;53.086;21.576;2023-04-24T11:02:17;11.02;;;5.53;;
45206;SDS011;30950;53.086;21.576;2023-04-24T11:04:45;9.45;;;6.85;;
45206;SDS011;30950;53.086;21.576;2023-04-24T11:07:13;10.48;;;5.45;;
45206;SDS011;30950;53.086;21.576;2023-04-24T11:09:40;7.65;;;6.00;;
45206;SDS011;30950;53.086;21.576;2023-04-24T11:12:11;9.80;;;5.45;;
45206;SDS011;30950;53.086;21.576;2023-04-24T11:15:13;12.18;;;5.78;;
45206;SDS011;30950;53.086;21.576;2023-04-24T11:17:37;11.88;;;10.13;;
45206;SDS011;30950;53.086;21.576;2023-04-24T11:20:11;8.13;;;5.63;;
45206;SDS011;30950;53.086;21.576;2023-04-24T11:22:54;9.45;;;5.82;;
45206;SDS011;30950;53.086;21.576;2023-04-24T11:25:22;9.73;;;5.82;;
45206;SDS011;30950;53.086;21.576;2023-04-24T11:27:49;9.65;;;5.85;;
45206;SDS011;30950;53.086;21.576;2023-04-24T11:30:29;11.50;;;8.05;;
45206;SDS011;30950;53.086;21.576;2023-04-24T11:33:07;9.63;;;6.53;;
45206;SDS011;30950;53.086;21.576;2023-04-24T11:38:04;6.82;;;4.85;;
45206;SDS011;30950;53.086;21.576;2023-04-24T11:40:34;10.77;;;5.53;;
45206;SDS011;30950;53.086;21.576;2023-04-24T11:43:04;6.93;;;4.93;;
45206;SDS011;30950;53.086;21.576;2023-04-24T11:45:33;7.35;;;5.97;;
45206;SDS011;30950;53.086;21.576;2023-04-24T11:48:02;14.25;;;5.55;;
45206;SDS011;30950;53.086;21.576;2023-04-24T11:50:30;18.58;;;15.57;;
45206;SDS011;30950;53.086;21.576;2023-04-24T11:52:57;10.10;;;5.60;;
45206;SDS011;30950;53.086;21.576;2023-04-24T11:55:26;9.75;;;5.10;;
45206;SDS011;30950;53.086;21.576;2023-04-24T11:57:55;6.90;;;6.13;;
45206;SDS011;30950;53.086;21.576;2023-04-24T12:00:25;7.88;;;5.50;;
45206;SDS011;30950;53.086;21.576;2023-04-24T12:03:03;9.38;;;7.60;;
45206;SDS011;30950;53.086;21.576;2023-04-24T12:05:35;6.90;;;5.05;;
45206;SDS011;30950;53.086;21.576;2023-04-24T12:08:03;7.15;;;4.72;;
45206;SDS011;30950;53.086;21.576;2023-04-24T12:10:32;7.53;;;4.40;;
45206;SDS011;30950;53.086;21.576;2023-04-24T12:13:01;10.77;;;7.93;;
45206;SDS011;30950;53.086;21.576;2023-04-24T12:15:29;8.35;;;5.35;;
45206;SDS011;30950;53.086;21.576;2023-04-24T12:17:56;7.68;;;5.05;;
45206;SDS011;30950;53.086;21.576;2023-04-24T12:20:28;7.70;;;4.95;;
45206;SDS011;30950;53.086;21.576;2023-04-24T12:22:58;7.47;;;4.68;;
45206;SDS011;30950;53.086;21.576;2023-04-24T12:25:30;8.93;;;4.82;;
45206;SDS011;30950;53.086;21.576;2023-04-24T12:30:30;10.30;;;4.35;;
45206;SDS011;30950;53.086;21.576;2023-04-24T12:33:03;8.48;;;5.50;;
45206;SDS011;30950;53.086;21.576;2023-04-24T12:35:31;6.78;;;5.07;;
45206;SDS011;30950;53.086;21.576;2023-04-24T12:38:07;9.43;;;4.88;;
45206;SDS011;30950;53.086;21.576;2023-04-24T12:40:36;7.00;;;5.10;;
45206;SDS011;30950;53.086;21.576;2023-04-24T12:43:17;7.38;;;4.90;;
45206;SDS011;30950;53.086;21.576;2023-04-24T12:45:45;7.10;;;4.82;;
45206;SDS011;30950;53.086;21.576;2023-04-24T12:48:14;9.20;;;5.20;;
45206;SDS011;30950;53.086;21.576;2023-04-24T12:50:42;9.65;;;4.93;;
45206;SDS011;30950;53.086;21.576;2023-04-24T12:53:12;8.00;;;5.13;;
45206;SDS011;30950;53.086;21.576;2023-04-24T12:55:40;8.77;;;6.07;;
45206;SDS011;30950;53.086;21.576;2023-04-24T12:58:07;7.00;;;5.03;;
45206;SDS011;30950;53.086;21.576;2023-04-24T13:00:34;7.57;;;5.00;;
45206;SDS011;30950;53.086;21.576;2023-04-24T13:03:03;7.80;;;4.68;;
45206;SDS011;30950;53.086;21.576;2023-04-24T13:05:30;6.22;;;4.70;;
45206;SDS011;30950;53.086;21.576;2023-04-24T13:07:58;6.43;;;4.85;;
45206;SDS011;30950;53.086;21.576;2023-04-24T13:10:25;6.80;;;4.30;;
45206;SDS011;30950;53.086;21.576;2023-04-24T13:12:53;7.53;;;4.97;;
45206;SDS011;30950;53.086;21.576;2023-04-24T13:15:20;10.15;;;4.78;;
45206;SDS011;30950;53.086;21.576;2023-04-24T13:17:48;11.15;;;4.60;;
45206;SDS011;30950;53.086;21.576;2023-04-24T13:20:16;7.38;;;4.63;;
45206;SDS011;30950;53.086;21.576;2023-04-24T13:22:44;7.53;;;4.88;;
45206;SDS011;30950;53.086;21.576;2023-04-24T13:25:11;9.23;;;5.30;;
45206;SDS011;30950;53.086;21.576;2023-04-24T13:27:39;9.45;;;4.65;;
45206;SDS011;30950;53.086;21.576;2023-04-24T13:30:06;6.10;;;4.95;;
45206;SDS011;30950;53.086;21.576;2023-04-24T13:32:34;6.20;;;5.00;;
45206;SDS011;30950;53.086;21.576;2023-04-24T13:35:02;6.90;;;5.18;;
45206;SDS011;30950;53.086;21.576;2023-04-24T13:37:30;10.02;;;5.75;;
45206;SDS011;30950;53.086;21.576;2023-04-24T13:39:57;8.18;;;5.45;;
45206;SDS011;30950;53.086;21.576;2023-04-24T13:42:24;10.70;;;6.03;;
45206;SDS011;30950;53.086;21.576;2023-04-24T13:44:52;6.38;;;4.90;;
45206;SDS011;30950;53.086;21.576;2023-04-24T13:47:20;7.70;;;5.07;;
45206;SDS011;30950;53.086;21.576;2023-04-24T13:49:47;6.07;;;4.70;;
45206;SDS011;30950;53.086;21.576;2023-04-24T13:52:15;7.70;;;5.30;;
45206;SDS011;30950;53.086;21.576;2023-04-24T13:54:42;8.63;;;5.85;;
45206;SDS011;30950;53.086;21.576;2023-04-24T13:57:10;7.38;;;4.55;;
45206;SDS011;30950;53.086;21.576;2023-04-24T13:59:37;10.27;;;4.82;;
45206;SDS011;30950;53.086;21.576;2023-04-24T14:02:07;7.43;;;4.60;;
45206;SDS011;30950;53.086;21.576;2023-04-24T14:04:34;10.38;;;5.93;;
45206;SDS011;30950;53.086;21.576;2023-04-24T14:07:02;8.70;;;5.10;;
45206;SDS011;30950;53.086;21.576;2023-04-24T14:09:30;9.48;;;5.40;;
45206;SDS011;30950;53.086;21.576;2023-04-24T14:11:57;8.48;;;5.68;;
45206;SDS011;30950;53.086;21.576;2023-04-24T14:14:24;7.07;;;5.90;;
45206;SDS011;30950;53.086;21.576;2023-04-24T14:16:52;7.45;;;5.50;;
45206;SDS011;30950;53.086;21.576;2023-04-24T14:19:19;11.30;;;5.85;;
45206;SDS011;30950;53.086;21.576;2023-04-24T14:21:46;9.27;;;5.65;;
45206;SDS011;30950;53.086;21.576;2023-04-24T14:24:15;8.20;;;6.03;;
45206;SDS011;30950;53.086;21.576;2023-04-24T14:26:42;5.55;;;4.88;;
45206;SDS011;30950;53.086;21.576;2023-04-24T14:29:09;12.98;;;4.85;;
45206;SDS011;30950;53.086;21.576;2023-04-24T14:31:41;7.35;;;4.40;;
45206;SDS011;30950;53.086;21.576;2023-04-24T14:34:09;6.70;;;4.93;;
45206;SDS011;30950;53.086;21.576;2023-04-24T14:36:36;7.65;;;4.15;;
45206;SDS011;30950;53.086;21.576;2023-04-24T14:39:04;6.93;;;4.28;;
45206;SDS011;30950;53.086;21.576;2023-04-24T14:41:34;12.43;;;5.18;;
45206;SDS011;30950;53.086;21.576;2023-04-24T14:44:03;6.80;;;5.65;;
45206;SDS011;30950;53.086;21.576;2023-04-24T14:46:30;7.20;;;5.18;;